sensor_id;sensor_type;location;lat;lon;timestamp;pressure;altitude;pressure_sealevel;temperature;humidity
60371;BME280;48550;40.588;49.684;2023-05-24T00:01:56;101107.28;;;21.45;100.00
60371;BME280;48550;40.588;49.684;2023-05-24T00:04:22;101095.59;;;21.40;100.00
60371;BME280;48550;40.588;49.684;2023-05-24T00:06:50;101109.84;;;21.37;100.00
60371;BME280;48550;40.588;49.684;2023-05-24T00:09:16;101101.16;;;21.35;100.00
60371;BME280;48550;40.588;49.684;2023-05-24T00:11:41;101103.88;;;21.35;100.00
60371;BME280;48550;40.588;49.684;2023-05-24T00:14:07;101119.81;;;21.28;100.00
60371;BME280;48550;40.588;49.684;2023-05-24T00:16:33;101118.22;;;21.21;100.00
60371;BME280;48550;40.588;49.684;2023-05-24T00:18:59;101113.88;;;21.20;100.00
60371;BME280;48550;40.588;49.684;2023-05-24T00:21:26;101119.63;;;21.19;100.00
60371;BME280;48550;40.588;49.684;2023-05-24T00:23:52;101120.44;;;21.19;100.00
60371;BME280;48550;40.588;49.684;2023-05-24T00:26:17;101119.63;;;21.19;100.00
60371;BME280;48550;40.588;49.684;2023-05-24T00:28:43;101126.50;;;21.16;100.00
60371;BME280;48550;40.588;49.684;2023-05-24T00:31:09;101123.13;;;21.24;100.00
60371;BME280;48550;40.588;49.684;2023-05-24T00:33:35;101118.34;;;21.35;100.00
60371;BME280;48550;40.588;49.684;2023-05-24T00:36:00;101132.00;;;21.35;100.00
60371;BME280;48550;40.588;49.684;2023-05-24T00:38:26;101127.34;;;21.36;100.00
60371;BME280;48550;40.588;49.684;2023-05-24T00:40:53;101125.66;;;21.40;100.00
60371;BME280;48550;40.588;49.684;2023-05-24T00:43:22;101120.19;;;21.40;100.00
60371;BME280;48550;40.588;49.684;2023-05-24T00:46:04;101118.25;;;21.40;100.00
60371;BME280;48550;40.588;49.684;2023-05-24T00:48:36;101116.88;;;21.43;100.00
60371;BME280;48550;40.588;49.684;2023-05-24T00:51:01;101113.53;;;21.46;100.00
60371;BME280;48550;40.588;49.684;2023-05-24T00:53:27;101110.06;;;21.40;100.00
60371;BME280;48550;40.588;49.684;2023-05-24T00:55:54;101119.59;;;21.43;100.00
60371;BME280;48550;40.588;49.684;2023-05-24T00:58:20;101125.19;;;21.51;100.00
60371;BME280;48550;40.588;49.684;2023-05-24T01:00:47;101126.41;;;21.64;100.00
60371;BME280;48550;40.588;49.684;2023-05-24T01:03:14;101119.88;;;21.79;100.00
60371;BME280;48550;40.588;49.684;2023-05-24T01:05:39;101117.81;;;21.89;100.00
60371;BME280;48550;40.588;49.684;2023-05-24T01:11:10;101124.38;;;21.88;100.00
60371;BME280;48550;40.588;49.684;2023-05-24T01:19:32;101130.81;;;21.79;100.00
60371;BME280;48550;40.588;49.684;2023-05-24T01:22:27;101134.34;;;21.79;100.00
60371;BME280;48550;40.588;49.684;2023-05-24T01:25:11;101140.34;;;21.81;100.00
60371;BME280;48550;40.588;49.684;2023-05-24T01:27:42;101131.31;;;21.81;100.00
60371;BME280;48550;40.588;49.684;2023-05-24T01:30:09;101133.25;;;21.80;100.00
60371;BME280;48550;40.588;49.684;2023-05-24T01:32:34;101134.34;;;21.79;100.00
60371;BME280;48550;40.588;49.684;2023-05-24T01:35:00;101125.66;;;21.77;100.00
60371;BME280;48550;40.588;49.684;2023-05-24T01:37:26;101130.31;;;21.77;100.00
60371;BME280;48550;40.588;49.684;2023-05-24T01:39:52;101124.03;;;21.76;100.00
60371;BME280;48550;40.588;49.684;2023-05-24T01:52:57;101112.00;;;22.10;100.00
60371;BME280;48550;40.588;49.684;2023-05-24T01:55:27;101117.31;;;22.20;100.00
60371;BME280;48550;40.588;49.684;2023-05-24T01:57:57;101111.44;;;22.27;100.00
60371;BME280;48550;40.588;49.684;2023-05-24T02:00:25;101108.34;;;22.33;100.00
60371;BME280;48550;40.588;49.684;2023-05-24T02:02:51;101115.03;;;22.41;100.00
60371;BME280;48550;40.588;49.684;2023-05-24T02:05:17;101108.56;;;22.50;100.00
60371;BME280;48550;40.588;49.684;2023-05-24T02:07:42;101120.50;;;22.68;100.00
60371;BME280;48550;40.588;49.684;2023-05-24T02:10:08;101109.91;;;22.80;100.00
60371;BME280;48550;40.588;49.684;2023-05-24T02:12:34;101114.66;;;22.89;100.00
60371;BME280;48550;40.588;49.684;2023-05-24T02:15:00;101119.09;;;22.98;100.00
60371;BME280;48550;40.588;49.684;2023-05-24T02:17:26;101118.50;;;23.15;100.00
60371;BME280;48550;40.588;49.684;2023-05-24T02:19:51;101128.41;;;23.25;100.00
60371;BME280;48550;40.588;49.684;2023-05-24T02:22:17;101123.22;;;23.37;100.00
60371;BME280;48550;40.588;49.684;2023-05-24T02:24:46;101126.84;;;23.46;100.00
60371;BME280;48550;40.588;49.684;2023-05-24T02:27:12;101124.09;;;23.60;100.00
60371;BME280;48550;40.588;49.684;2023-05-24T02:29:38;101128.19;;;23.71;100.00
60371;BME280;48550;40.588;49.684;2023-05-24T02:32:06;101119.94;;;23.85;100.00
60371;BME280;48550;40.588;49.684;2023-05-24T02:34:32;101122.50;;;24.03;100.00
60371;BME280;48550;40.588;49.684;2023-05-24T02:36:57;101126.91;;;24.13;100.00
60371;BME280;48550;40.588;49.684;2023-05-24T02:39:23;101131.00;;;24.24;100.00
60371;BME280;48550;40.588;49.684;2023-05-24T02:41:49;101130.13;;;24.37;100.00
60371;BME280;48550;40.588;49.684;2023-05-24T02:44:15;101138.47;;;24.55;100.00
60371;BME280;48550;40.588;49.684;2023-05-24T02:46:40;101139.53;;;24.76;100.00
60371;BME280;48550;40.588;49.684;2023-05-24T02:49:06;101152.16;;;24.86;100.00
60371;BME280;48550;40.588;49.684;2023-05-24T02:51:32;101158.94;;;24.88;100.00
60371;BME280;48550;40.588;49.684;2023-05-24T02:53:57;101156.91;;;25.02;100.00
60371;BME280;48550;40.588;49.684;2023-05-24T02:56:23;101169.22;;;25.14;100.00
60371;BME280;48550;40.588;49.684;2023-05-24T02:58:51;101159.41;;;25.30;100.00
60371;BME280;48550;40.588;49.684;2023-05-24T03:01:18;101163.16;;;25.51;100.00
60371;BME280;48550;40.588;49.684;2023-05-24T03:03:45;101169.63;;;25.98;100.00
60371;BME280;48550;40.588;49.684;2023-05-24T03:06:11;101161.06;;;26.17;97.24
60371;BME280;48550;40.588;49.684;2023-05-24T03:08:41;101160.91;;;26.14;97.43
60371;BME280;48550;40.588;49.684;2023-05-24T03:11:06;101163.53;;;26.02;100.00
60371;BME280;48550;40.588;49.684;2023-05-24T03:13:32;101153.16;;;26.07;99.85
60371;BME280;48550;40.588;49.684;2023-05-24T03:15:58;101150.22;;;26.12;99.33
60371;BME280;48550;40.588;49.684;2023-05-24T03:18:24;101156.69;;;26.25;100.00
60371;BME280;48550;40.588;49.684;2023-05-24T03:20:49;101158.94;;;26.40;96.81
60371;BME280;48550;40.588;49.684;2023-05-24T03:23:15;101152.19;;;26.67;90.48
60371;BME280;48550;40.588;49.684;2023-05-24T03:25:41;101152.47;;;26.74;91.91
60371;BME280;48550;40.588;49.684;2023-05-24T03:28:07;101152.28;;;27.17;85.42
60371;BME280;48550;40.588;49.684;2023-05-24T03:30:32;101169.19;;;27.37;83.99
60371;BME280;48550;40.588;49.684;2023-05-24T03:32:58;101159.75;;;27.17;87.57
60371;BME280;48550;40.588;49.684;2023-05-24T03:35:24;101161.50;;;27.72;80.38
60371;BME280;48550;40.588;49.684;2023-05-24T03:37:50;101161.53;;;28.26;74.25
60371;BME280;48550;40.588;49.684;2023-05-24T03:40:15;101155.44;;;29.02;68.48
60371;BME280;48550;40.588;49.684;2023-05-24T03:42:41;101167.34;;;29.30;65.93
60371;BME280;48550;40.588;49.684;2023-05-24T03:45:07;101175.53;;;29.27;64.19
60371;BME280;48550;40.588;49.684;2023-05-24T03:47:33;101180.28;;;29.26;62.28
60371;BME280;48550;40.588;49.684;2023-05-24T03:49:59;101190.16;;;29.39;61.34
60371;BME280;48550;40.588;49.684;2023-05-24T03:52:25;101201.75;;;29.82;62.74
60371;BME280;48550;40.588;49.684;2023-05-24T03:54:50;101194.72;;;29.72;66.39
60371;BME280;48550;40.588;49.684;2023-05-24T03:57:16;101197.72;;;29.67;67.43
60371;BME280;48550;40.588;49.684;2023-05-24T03:59:42;101196.41;;;27.89;82.06
60371;BME280;48550;40.588;49.684;2023-05-24T04:02:08;101204.59;;;27.26;89.44
60371;BME280;48550;40.588;49.684;2023-05-24T04:04:34;101202.56;;;27.14;90.12
60371;BME280;48550;40.588;49.684;2023-05-24T04:07:01;101202.94;;;27.04;90.31
60371;BME280;48550;40.588;49.684;2023-05-24T04:09:27;101200.66;;;27.86;82.13
60371;BME280;48550;40.588;49.684;2023-05-24T04:11:52;101207.66;;;27.63;81.11
60371;BME280;48550;40.588;49.684;2023-05-24T04:14:18;101214.44;;;26.42;95.67
60371;BME280;48550;40.588;49.684;2023-05-24T04:16:44;101214.63;;;26.11;100.00
60371;BME280;48550;40.588;49.684;2023-05-24T04:19:10;101220.25;;;25.63;100.00
60371;BME280;48550;40.588;49.684;2023-05-24T04:21:36;101222.41;;;25.26;100.00
60371;BME280;48550;40.588;49.684;2023-05-24T04:24:05;101218.25;;;25.29;100.00
60371;BME280;48550;40.588;49.684;2023-05-24T04:26:31;101231.47;;;26.18;100.00
60371;BME280;48550;40.588;49.684;2023-05-24T04:28:58;101233.28;;;27.25;86.91
60371;BME280;48550;40.588;49.684;2023-05-24T04:31:24;101241.31;;;27.09;87.19
60371;BME280;48550;40.588;49.684;2023-05-24T04:33:53;101244.84;;;27.48;81.92
60371;BME280;48550;40.588;49.684;2023-05-24T04:36:20;101235.94;;;28.13;75.73
60371;BME280;48550;40.588;49.684;2023-05-24T04:38:47;101244.19;;;29.73;61.80
60371;BME280;48550;40.588;49.684;2023-05-24T04:41:12;101245.59;;;30.63;55.65
60371;BME280;48550;40.588;49.684;2023-05-24T04:43:39;101248.38;;;29.95;57.90
60371;BME280;48550;40.588;49.684;2023-05-24T04:46:05;101255.53;;;30.09;58.11
60371;BME280;48550;40.588;49.684;2023-05-24T04:48:30;101261.81;;;30.49;55.72
60371;BME280;48550;40.588;49.684;2023-05-24T04:50:57;101259.91;;;30.97;53.71
60371;BME280;48550;40.588;49.684;2023-05-24T04:53:23;101261.72;;;30.89;52.06
60371;BME280;48550;40.588;49.684;2023-05-24T04:55:49;101259.38;;;30.60;54.56
60371;BME280;48550;40.588;49.684;2023-05-24T04:58:15;101263.03;;;32.13;48.33
60371;BME280;48550;40.588;49.684;2023-05-24T05:00:42;101261.94;;;31.28;51.42
60371;BME280;48550;40.588;49.684;2023-05-24T05:03:08;101264.06;;;32.43;47.30
60371;BME280;48550;40.588;49.684;2023-05-24T05:05:34;101258.28;;;32.94;45.45
60371;BME280;48550;40.588;49.684;2023-05-24T05:08:00;101261.41;;;31.73;49.04
60371;BME280;48550;40.588;49.684;2023-05-24T05:10:26;101264.38;;;30.14;55.14
60371;BME280;48550;40.588;49.684;2023-05-24T05:12:52;101248.78;;;28.51;67.56
60371;BME280;48550;40.588;49.684;2023-05-24T05:15:21;101247.47;;;28.36;72.87
60371;BME280;48550;40.588;49.684;2023-05-24T05:17:47;101240.09;;;28.28;76.44
60371;BME280;48550;40.588;49.684;2023-05-24T05:20:12;101251.78;;;28.04;74.58
60371;BME280;48550;40.588;49.684;2023-05-24T05:22:38;101257.31;;;29.64;61.04
60371;BME280;48550;40.588;49.684;2023-05-24T05:25:04;101261.03;;;29.07;61.82
60371;BME280;48550;40.588;49.684;2023-05-24T05:27:30;101272.94;;;29.97;60.14
60371;BME280;48550;40.588;49.684;2023-05-24T05:29:56;101264.53;;;30.06;57.42
60371;BME280;48550;40.588;49.684;2023-05-24T05:32:22;101268.81;;;30.03;57.55
60371;BME280;48550;40.588;49.684;2023-05-24T05:34:47;101264.19;;;30.07;55.71
60371;BME280;48550;40.588;49.684;2023-05-24T05:37:13;101263.91;;;29.35;62.71
60371;BME280;48550;40.588;49.684;2023-05-24T05:39:39;101256.53;;;29.03;65.82
60371;BME280;48550;40.588;49.684;2023-05-24T05:42:05;101253.31;;;29.01;68.70
60371;BME280;48550;40.588;49.684;2023-05-24T05:44:31;101260.88;;;26.78;89.78
60371;BME280;48550;40.588;49.684;2023-05-24T05:46:57;101269.97;;;27.46;88.87
60371;BME280;48550;40.588;49.684;2023-05-24T05:49:22;101272.91;;;28.00;81.03
60371;BME280;48550;40.588;49.684;2023-05-24T05:51:48;101277.88;;;28.48;77.95
60371;BME280;48550;40.588;49.684;2023-05-24T05:54:14;101268.19;;;28.42;74.99
60371;BME280;48550;40.588;49.684;2023-05-24T05:56:43;101268.53;;;27.99;78.19
60371;BME280;48550;40.588;49.684;2023-05-24T05:59:14;101271.91;;;28.92;70.96
60371;BME280;48550;40.588;49.684;2023-05-24T06:01:43;101264.28;;;28.43;72.21
60371;BME280;48550;40.588;49.684;2023-05-24T06:04:16;101271.75;;;28.22;73.47
60371;BME280;48550;40.588;49.684;2023-05-24T06:06:42;101279.91;;;27.98;76.41
60371;BME280;48550;40.588;49.684;2023-05-24T06:09:14;101280.84;;;27.51;79.63
60371;BME280;48550;40.588;49.684;2023-05-24T06:11:40;101284.88;;;27.83;76.56
60371;BME280;48550;40.588;49.684;2023-05-24T06:14:10;101302.78;;;28.19;71.95
60371;BME280;48550;40.588;49.684;2023-05-24T06:16:36;101292.47;;;27.66;73.85
60371;BME280;48550;40.588;49.684;2023-05-24T06:19:06;101297.16;;;25.37;100.00
60371;BME280;48550;40.588;49.684;2023-05-24T06:21:32;101304.81;;;26.40;89.83
60371;BME280;48550;40.588;49.684;2023-05-24T06:23:58;101315.28;;;26.81;88.02
60371;BME280;48550;40.588;49.684;2023-05-24T06:26:26;101308.41;;;25.67;100.00
60371;BME280;48550;40.588;49.684;2023-05-24T06:28:52;101311.84;;;24.79;100.00
60371;BME280;48550;40.588;49.684;2023-05-24T06:31:18;101311.84;;;24.79;100.00
60371;BME280;48550;40.588;49.684;2023-05-24T06:33:44;101329.84;;;25.47;100.00
60371;BME280;48550;40.588;49.684;2023-05-24T06:36:09;101339.88;;;25.52;100.00
60371;BME280;48550;40.588;49.684;2023-05-24T06:38:35;101345.81;;;25.45;100.00
60371;BME280;48550;40.588;49.684;2023-05-24T06:41:01;101338.28;;;26.16;97.87
60371;BME280;48550;40.588;49.684;2023-05-24T06:43:26;101350.91;;;25.60;100.00
60371;BME280;48550;40.588;49.684;2023-05-24T06:45:53;101356.47;;;25.38;100.00
60371;BME280;48550;40.588;49.684;2023-05-24T06:48:18;101357.31;;;25.87;100.00
60371;BME280;48550;40.588;49.684;2023-05-24T06:50:44;101356.38;;;24.76;100.00
60371;BME280;48550;40.588;49.684;2023-05-24T06:53:10;101351.63;;;25.83;100.00
60371;BME280;48550;40.588;49.684;2023-05-24T06:55:36;101362.34;;;25.93;100.00
60371;BME280;48550;40.588;49.684;2023-05-24T06:58:02;101377.66;;;26.43;90.95
60371;BME280;48550;40.588;49.684;2023-05-24T07:00:27;101371.44;;;26.11;96.95
60371;BME280;48550;40.588;49.684;2023-05-24T07:02:53;101369.56;;;25.72;100.00
60371;BME280;48550;40.588;49.684;2023-05-24T07:05:19;101365.28;;;25.26;100.00
60371;BME280;48550;40.588;49.684;2023-05-24T07:07:46;101371.97;;;24.89;100.00
60371;BME280;48550;40.588;49.684;2023-05-24T07:10:12;101372.25;;;24.79;100.00
60371;BME280;48550;40.588;49.684;2023-05-24T07:12:38;101377.09;;;25.27;100.00
60371;BME280;48550;40.588;49.684;2023-05-24T07:15:08;101371.31;;;25.06;100.00
60371;BME280;48550;40.588;49.684;2023-05-24T07:17:34;101380.34;;;25.29;100.00
60371;BME280;48550;40.588;49.684;2023-05-24T07:20:00;101383.13;;;23.85;100.00
60371;BME280;48550;40.588;49.684;2023-05-24T07:22:26;101377.72;;;24.79;100.00
60371;BME280;48550;40.588;49.684;2023-05-24T07:24:53;101377.09;;;25.27;100.00
60371;BME280;48550;40.588;49.684;2023-05-24T07:27:20;101381.34;;;24.66;100.00
60371;BME280;48550;40.588;49.684;2023-05-24T07:29:46;101373.72;;;24.63;100.00
60371;BME280;48550;40.588;49.684;2023-05-24T07:32:14;101382.75;;;23.45;100.00
60371;BME280;48550;40.588;49.684;2023-05-24T07:34:40;101385.94;;;24.07;100.00
60371;BME280;48550;40.588;49.684;2023-05-24T07:37:05;101385.72;;;24.67;100.00
60371;BME280;48550;40.588;49.684;2023-05-24T07:39:31;101387.94;;;24.15;100.00
60371;BME280;48550;40.588;49.684;2023-05-24T07:41:57;101390.25;;;23.53;100.00
60371;BME280;48550;40.588;49.684;2023-05-24T07:44:23;101384.72;;;24.63;100.00
60371;BME280;48550;40.588;49.684;2023-05-24T07:46:49;101377.16;;;24.19;100.00
60371;BME280;48550;40.588;49.684;2023-05-24T07:49:15;101386.56;;;24.54;100.00
60371;BME280;48550;40.588;49.684;2023-05-24T07:51:41;101378.50;;;24.07;100.00
60371;BME280;48550;40.588;49.684;2023-05-24T07:54:07;101386.88;;;23.29;100.00
60371;BME280;48550;40.588;49.684;2023-05-24T07:56:33;101377.78;;;22.26;100.00
60371;BME280;48550;40.588;49.684;2023-05-24T07:58:58;101387.94;;;22.81;100.00
60371;BME280;48550;40.588;49.684;2023-05-24T08:01:32;101383.59;;;22.43;100.00
60371;BME280;48550;40.588;49.684;2023-05-24T08:03:59;101380.75;;;23.04;100.00
60371;BME280;48550;40.588;49.684;2023-05-24T08:06:25;101385.34;;;23.23;100.00
60371;BME280;48550;40.588;49.684;2023-05-24T08:08:50;101393.88;;;23.21;100.00
60371;BME280;48550;40.588;49.684;2023-05-24T08:11:16;101390.19;;;23.12;100.00
60371;BME280;48550;40.588;49.684;2023-05-24T08:13:43;101400.75;;;23.19;100.00
60371;BME280;48550;40.588;49.684;2023-05-24T08:16:09;101415.56;;;22.99;100.00
60371;BME280;48550;40.588;49.684;2023-05-24T08:18:34;101410.38;;;22.22;100.00
60371;BME280;48550;40.588;49.684;2023-05-24T08:21:00;101416.94;;;22.21;100.00
60371;BME280;48550;40.588;49.684;2023-05-24T08:23:26;101409.25;;;22.04;100.00
60371;BME280;48550;40.588;49.684;2023-05-24T08:25:55;101415.09;;;21.93;100.00
60371;BME280;48550;40.588;49.684;2023-05-24T08:28:21;101408.13;;;21.81;100.00
60371;BME280;48550;40.588;49.684;2023-05-24T08:30:47;101411.84;;;22.14;100.00
60371;BME280;48550;40.588;49.684;2023-05-24T08:33:13;101410.78;;;22.72;100.00
60371;BME280;48550;40.588;49.684;2023-05-24T08:35:39;101419.81;;;22.72;100.00
60371;BME280;48550;40.588;49.684;2023-05-24T08:38:05;101417.47;;;22.23;100.00
60371;BME280;48550;40.588;49.684;2023-05-24T08:40:31;101424.69;;;22.38;100.00
60371;BME280;48550;40.588;49.684;2023-05-24T08:42:59;101424.63;;;22.43;100.00
60371;BME280;48550;40.588;49.684;2023-05-24T08:45:28;101419.00;;;22.34;100.00
60371;BME280;48550;40.588;49.684;2023-05-24T08:47:56;101407.25;;;21.62;100.00
60371;BME280;48550;40.588;49.684;2023-05-24T08:50:23;101415.50;;;21.81;100.00
60371;BME280;48550;40.588;49.684;2023-05-24T08:52:50;101414.28;;;22.16;100.00
60371;BME280;48550;40.588;49.684;2023-05-24T08:55:16;101409.09;;;21.91;100.00
60371;BME280;48550;40.588;49.684;2023-05-24T08:57:43;101415.03;;;21.98;100.00
60371;BME280;48550;40.588;49.684;2023-05-24T09:00:11;101407.84;;;21.83;100.00
60371;BME280;48550;40.588;49.684;2023-05-24T09:02:39;101422.63;;;22.06;100.00
60371;BME280;48550;40.588;49.684;2023-05-24T09:05:11;101419.00;;;22.34;100.00
60371;BME280;48550;40.588;49.684;2023-05-24T09:07:39;101415.69;;;21.89;100.00
60371;BME280;48550;40.588;49.684;2023-05-24T09:10:07;101407.59;;;21.79;100.00
60371;BME280;48550;40.588;49.684;2023-05-24T09:12:36;101410.22;;;22.13;100.00
60371;BME280;48550;40.588;49.684;2023-05-24T09:15:03;101408.47;;;20.78;100.00
60371;BME280;48550;40.588;49.684;2023-05-24T09:17:33;101410.16;;;21.42;100.00
60371;BME280;48550;40.588;49.684;2023-05-24T09:19:59;101416.63;;;21.51;100.00
60371;BME280;48550;40.588;49.684;2023-05-24T09:22:27;101408.75;;;20.76;100.00
60371;BME280;48550;40.588;49.684;2023-05-24T09:25:00;101417.88;;;21.01;100.00
60371;BME280;48550;40.588;49.684;2023-05-24T09:27:26;101418.22;;;20.94;100.00
60371;BME280;48550;40.588;49.684;2023-05-24T09:29:52;101405.03;;;20.13;100.00
60371;BME280;48550;40.588;49.684;2023-05-24T09:32:19;101415.59;;;21.13;100.00
60371;BME280;48550;40.588;49.684;2023-05-24T09:34:51;101426.50;;;21.47;100.00
60371;BME280;48550;40.588;49.684;2023-05-24T09:37:22;101426.38;;;21.33;100.00
60371;BME280;48550;40.588;49.684;2023-05-24T09:39:51;101431.25;;;21.02;100.00
60371;BME280;48550;40.588;49.684;2023-05-24T09:42:21;101430.66;;;21.39;100.00
60371;BME280;48550;40.588;49.684;2023-05-24T09:45:05;101431.81;;;20.99;100.00
60371;BME280;48550;40.588;49.684;2023-05-24T09:47:41;101437.63;;;21.21;100.00
60371;BME280;48550;40.588;49.684;2023-05-24T09:50:14;101442.84;;;21.81;100.00
60371;BME280;48550;40.588;49.684;2023-05-24T09:52:41;101448.25;;;22.10;100.00
60371;BME280;48550;40.588;49.684;2023-05-24T09:55:14;101441.03;;;22.19;100.00
60371;BME280;48550;40.588;49.684;2023-05-24T09:57:41;101436.91;;;21.98;100.00
60371;BME280;48550;40.588;49.684;2023-05-24T10:00:08;101430.00;;;21.81;100.00
60371;BME280;48550;40.588;49.684;2023-05-24T10:02:42;101428.88;;;21.59;100.00
60371;BME280;48550;40.588;49.684;2023-05-24T10:05:12;101424.06;;;21.74;100.00
60371;BME280;48550;40.588;49.684;2023-05-24T10:07:39;101422.13;;;21.17;100.00
60371;BME280;48550;40.588;49.684;2023-05-24T10:10:07;101425.41;;;21.48;100.00
60371;BME280;48550;40.588;49.684;2023-05-24T10:12:35;101418.94;;;21.39;100.00
60371;BME280;48550;40.588;49.684;2023-05-24T10:15:02;101426.44;;;20.89;100.00
60371;BME280;48550;40.588;49.684;2023-05-24T10:17:28;101409.38;;;20.68;100.00
60371;BME280;48550;40.588;49.684;2023-05-24T10:19:54;101422.75;;;20.65;100.00
60371;BME280;48550;40.588;49.684;2023-05-24T10:22:22;101414.38;;;20.95;100.00
60371;BME280;48550;40.588;49.684;2023-05-24T10:24:52;101408.41;;;21.22;100.00
60371;BME280;48550;40.588;49.684;2023-05-24T10:27:26;101416.06;;;21.20;100.00
60371;BME280;48550;40.588;49.684;2023-05-24T10:30:13;101427.53;;;21.56;100.00
60371;BME280;48550;40.588;49.684;2023-05-24T10:32:41;101420.03;;;20.65;100.00
60371;BME280;48550;40.588;49.684;2023-05-24T10:35:11;101420.25;;;21.12;100.00
60371;BME280;48550;40.588;49.684;2023-05-24T10:37:39;101413.91;;;21.51;100.00
60371;BME280;48550;40.588;49.684;2023-05-24T10:40:06;101427.22;;;21.29;100.00
60371;BME280;48550;40.588;49.684;2023-05-24T10:42:34;101417.13;;;21.58;100.00
60371;BME280;48550;40.588;49.684;2023-05-24T10:47:50;101415.44;;;21.62;100.00
60371;BME280;48550;40.588;49.684;2023-05-24T10:50:18;101422.03;;;22.09;100.00
60371;BME280;48550;40.588;49.684;2023-05-24T10:52:44;101414.63;;;22.33;100.00
60371;BME280;48550;40.588;49.684;2023-05-24T10:55:10;101409.47;;;22.08;100.00
60371;BME280;48550;40.588;49.684;2023-05-24T10:57:37;101416.03;;;22.31;100.00
60371;BME280;48550;40.588;49.684;2023-05-24T11:03:21;101434.75;;;22.42;100.00
60371;BME280;48550;40.588;49.684;2023-05-24T11:05:53;101421.59;;;22.20;100.00
60371;BME280;48550;40.588;49.684;2023-05-24T11:08:28;101423.66;;;22.10;100.00
60371;BME280;48550;40.588;49.684;2023-05-24T11:11:08;101416.88;;;22.26;100.00
60371;BME280;48550;40.588;49.684;2023-05-24T11:13:38;101411.25;;;22.17;100.00
60371;BME280;48550;40.588;49.684;2023-05-24T11:16:05;101404.47;;;21.67;100.00
60371;BME280;48550;40.588;49.684;2023-05-24T11:18:31;101411.72;;;22.01;100.00
60371;BME280;48550;40.588;49.684;2023-05-24T11:21:01;101417.13;;;21.58;100.00
60371;BME280;48550;40.588;49.684;2023-05-24T11:23:28;101416.34;;;21.52;100.00
60371;BME280;48550;40.588;49.684;2023-05-24T11:25:55;101418.69;;;21.35;100.00
60371;BME280;48550;40.588;49.684;2023-05-24T11:28:22;101418.47;;;21.61;100.00
60371;BME280;48550;40.588;49.684;2023-05-24T11:30:48;101414.75;;;21.46;100.00
60371;BME280;48550;40.588;49.684;2023-05-24T11:35:39;101425.06;;;21.54;100.00
60371;BME280;48550;40.588;49.684;2023-05-24T11:38:11;101420.13;;;21.28;100.00
60371;BME280;48550;40.588;49.684;2023-05-24T11:40:39;101424.72;;;20.98;100.00
60371;BME280;48550;40.588;49.684;2023-05-24T11:43:12;101428.81;;;21.35;100.00
60371;BME280;48550;40.588;49.684;2023-05-24T11:45:42;101428.47;;;21.41;100.00
60371;BME280;48550;40.588;49.684;2023-05-24T11:48:09;101430.72;;;21.63;100.00
60371;BME280;48550;40.588;49.684;2023-05-24T11:50:43;101427.59;;;21.75;100.00
60371;BME280;48550;40.588;49.684;2023-05-24T11:53:12;101425.88;;;21.55;100.00
60371;BME280;48550;40.588;49.684;2023-05-24T11:55:39;101436.03;;;21.78;100.00
60371;BME280;48550;40.588;49.684;2023-05-24T11:58:10;101438.28;;;21.71;100.00
60371;BME280;48550;40.588;49.684;2023-05-24T12:00:36;101428.50;;;21.36;100.00
60371;BME280;48550;40.588;49.684;2023-05-24T12:03:02;101421.28;;;21.50;100.00
60371;BME280;48550;40.588;49.684;2023-05-24T12:05:32;101424.53;;;21.52;100.00
60371;BME280;48550;40.588;49.684;2023-05-24T12:08:06;101415.56;;;21.47;100.00
60371;BME280;48550;40.588;49.684;2023-05-24T12:10:36;101417.19;;;20.80;100.00
60371;BME280;48550;40.588;49.684;2023-05-24T12:13:12;101414.66;;;20.93;100.00
60371;BME280;48550;40.588;49.684;2023-05-24T12:15:42;101411.94;;;21.28;100.00
60371;BME280;48550;40.588;49.684;2023-05-24T12:18:21;101403.81;;;21.22;100.00
60371;BME280;48550;40.588;49.684;2023-05-24T12:20:49;101401.75;;;21.38;100.00
60371;BME280;48550;40.588;49.684;2023-05-24T12:23:15;101408.72;;;21.49;100.00
60371;BME280;48550;40.588;49.684;2023-05-24T12:25:41;101400.75;;;21.58;100.00
60371;BME280;48550;40.588;49.684;2023-05-24T12:28:08;101402.66;;;21.58;100.00
60371;BME280;48550;40.588;49.684;2023-05-24T12:30:36;101410.22;;;21.37;100.00
60371;BME280;48550;40.588;49.684;2023-05-24T12:33:08;101406.03;;;21.44;100.00
60371;BME280;48550;40.588;49.684;2023-05-24T12:35:34;101405.94;;;21.54;100.00
60371;BME280;48550;40.588;49.684;2023-05-24T12:38:00;101407.69;;;21.11;100.00
60371;BME280;48550;40.588;49.684;2023-05-24T12:40:25;101409.75;;;20.96;100.00
60371;BME280;48550;40.588;49.684;2023-05-24T12:42:55;101405.22;;;20.81;100.00
60371;BME280;48550;40.588;49.684;2023-05-24T12:45:22;101411.50;;;20.81;100.00
60371;BME280;48550;40.588;49.684;2023-05-24T12:47:50;101410.19;;;20.69;100.00
60371;BME280;48550;40.588;49.684;2023-05-24T12:50:17;101416.66;;;20.83;100.00
60371;BME280;48550;40.588;49.684;2023-05-24T12:52:44;101422.66;;;20.80;100.00
60371;BME280;48550;40.588;49.684;2023-05-24T12:55:13;101416.63;;;20.88;100.00
60371;BME280;48550;40.588;49.684;2023-05-24T12:57:40;101415.75;;;20.53;100.00
60371;BME280;48550;40.588;49.684;2023-05-24T13:00:08;101407.28;;;20.55;100.00
60371;BME280;48550;40.588;49.684;2023-05-24T13:02:36;101412.47;;;20.51;100.00